createdAt,value
2018-12-29T00:02:53.085Z,29.47
2018-12-29T00:06:15.321Z,27.90
2018-12-29T00:09:37.937Z,29.80
2018-12-29T00:13:00.145Z,29.70
2018-12-29T00:16:22.290Z,30.23
2018-12-29T00:19:44.545Z,29.13
2018-12-29T00:23:06.657Z,31.33
2018-12-29T00:26:28.580Z,29.80
2018-12-29T00:29:51.032Z,31.07
2018-12-29T00:33:13.178Z,30.53
2018-12-29T00:36:35.312Z,30.87
2018-12-29T00:39:57.433Z,29.43
2018-12-29T00:43:19.707Z,31.43
2018-12-29T00:46:41.930Z,31.03
2018-12-29T00:50:04.013Z,34.07
2018-12-29T00:53:26.236Z,32.30
2018-12-29T00:56:48.417Z,33.30
2018-12-29T01:00:13.441Z,32.73
2018-12-29T01:03:35.819Z,34.27
2018-12-29T01:06:58.341Z,34.73
2018-12-29T01:10:20.807Z,34.43
2018-12-29T01:13:43.021Z,34.90
2018-12-29T01:17:05.687Z,33.97
2018-12-29T01:20:27.788Z,34.30
2018-12-29T01:23:50.169Z,33.60
2018-12-29T01:27:12.365Z,35.07
2018-12-29T01:30:34.505Z,34.27
2018-12-29T01:33:56.730Z,35.87
2018-12-29T01:37:19.057Z,36.77
2018-12-29T01:40:41.397Z,35.70
2018-12-29T01:44:03.215Z,36.30
2018-12-29T01:47:25.342Z,35.07
2018-12-29T01:50:47.295Z,38.20
2018-12-29T01:54:09.427Z,36.07
2018-12-29T01:57:31.447Z,36.40
2018-12-29T02:00:53.913Z,40.57
2018-12-29T02:04:16.236Z,38.50
2018-12-29T02:07:38.496Z,37.23
2018-12-29T02:11:00.757Z,38.43
2018-12-29T02:14:23.257Z,38.13
2018-12-29T02:17:45.923Z,39.07
2018-12-29T02:21:08.304Z,39.43
2018-12-29T02:24:30.630Z,40.10
2018-12-29T02:27:53.124Z,40.33
2018-12-29T02:31:15.559Z,41.50
2018-12-29T02:34:37.964Z,39.67
2018-12-29T02:38:00.160Z,41.10
2018-12-29T02:41:22.624Z,41.53
2018-12-29T02:44:45.098Z,41.00
2018-12-29T02:48:07.169Z,41.07
2018-12-29T02:51:29.226Z,39.43
2018-12-29T02:54:51.080Z,39.63
2018-12-29T02:58:13.535Z,41.63
2018-12-29T03:01:35.782Z,40.70
2018-12-29T03:04:58.044Z,39.57
2018-12-29T03:08:20.258Z,40.97
2018-12-29T03:11:42.445Z,40.10
2018-12-29T03:15:05.004Z,40.27
2018-12-29T03:18:27.004Z,39.60
2018-12-29T03:21:49.383Z,40.80
2018-12-29T03:25:12.072Z,40.30
2018-12-29T03:28:34.385Z,38.80
2018-12-29T03:31:56.669Z,40.33
2018-12-29T03:35:18.771Z,40.07
2018-12-29T03:38:40.868Z,39.67
2018-12-29T03:42:03.473Z,40.23
2018-12-29T03:45:25.898Z,41.23
2018-12-29T03:48:48.310Z,39.73
2018-12-29T03:52:10.587Z,39.77
2018-12-29T03:55:32.452Z,38.17
2018-12-29T03:58:54.566Z,37.90
2018-12-29T04:02:16.668Z,41.23
2018-12-29T04:05:38.844Z,38.43
2018-12-29T04:09:34.875Z,39.70
2018-12-29T04:12:59.488Z,39.80
2018-12-29T04:16:21.332Z,41.03
2018-12-29T04:19:43.705Z,39.87
2018-12-29T04:23:05.637Z,38.13
2018-12-29T04:26:27.773Z,39.07
2018-12-29T04:29:49.984Z,39.53
2018-12-29T04:33:12.223Z,38.77
2018-12-29T04:36:34.176Z,37.17
2018-12-29T04:39:56.503Z,38.90
2018-12-29T04:43:18.788Z,39.77
2018-12-29T04:46:40.985Z,39.13
2018-12-29T04:50:03.472Z,40.33
2018-12-29T04:53:25.670Z,39.03
2018-12-29T04:56:47.593Z,44.03
2018-12-29T05:00:10.059Z,41.23
2018-12-29T05:03:32.493Z,43.63
2018-12-29T05:06:54.657Z,42.93
2018-12-29T05:10:16.877Z,43.23
2018-12-29T05:13:38.993Z,40.80
2018-12-29T05:17:01.094Z,42.07
2018-12-29T05:20:23.514Z,41.80
2018-12-29T05:23:45.693Z,40.43
2018-12-29T05:27:08.137Z,42.37
2018-12-29T05:30:30.329Z,41.60
2018-12-29T05:33:52.524Z,40.93
2018-12-29T05:37:15.069Z,40.33
2018-12-29T05:40:37.475Z,40.03
2018-12-29T05:43:59.901Z,42.47
2018-12-29T05:47:22.223Z,41.57
2018-12-29T05:50:44.736Z,41.47
2018-12-29T05:54:07.200Z,40.70
2018-12-29T05:57:29.379Z,40.80
2018-12-29T06:00:51.525Z,41.37
2018-12-29T06:04:13.734Z,41.17
2018-12-29T06:07:35.956Z,39.63
2018-12-29T06:10:58.121Z,38.83
2018-12-29T06:14:20.324Z,39.03
2018-12-29T06:17:42.185Z,39.00
2018-12-29T06:21:04.516Z,38.67
2018-12-29T06:24:26.662Z,39.40
2018-12-29T06:27:48.873Z,41.07
2018-12-29T06:31:10.808Z,40.40
2018-12-29T06:34:32.685Z,38.50
2018-12-29T06:37:54.744Z,39.83
2018-12-29T06:41:17.157Z,39.43
2018-12-29T06:44:39.364Z,38.87
2018-12-29T06:48:01.617Z,37.60
2018-12-29T06:51:23.994Z,37.77
2018-12-29T06:54:46.117Z,39.70
2018-12-29T06:58:08.273Z,39.93
2018-12-29T07:01:30.165Z,39.37
2018-12-29T07:04:52.614Z,38.63
2018-12-29T07:08:14.517Z,38.30
2018-12-29T07:11:36.682Z,41.97
2018-12-29T07:14:59.102Z,38.87
2018-12-29T07:18:21.387Z,40.13
2018-12-29T07:21:43.617Z,39.93
2018-12-29T07:25:05.785Z,40.70
2018-12-29T07:28:28.262Z,38.50
2018-12-29T07:31:50.747Z,41.37
2018-12-29T07:35:13.077Z,39.70
2018-12-29T07:38:35.049Z,41.93
2018-12-29T07:41:57.593Z,39.93
2018-12-29T07:45:20.085Z,38.27
2018-12-29T07:48:42.342Z,35.97
2018-12-29T07:52:04.456Z,36.67
2018-12-29T07:55:26.418Z,35.00
2018-12-29T07:58:48.843Z,35.93
2018-12-29T08:02:11.229Z,33.80
2018-12-29T08:05:33.698Z,35.73
2018-12-29T08:08:55.845Z,36.47
2018-12-29T08:12:17.995Z,34.87
2018-12-29T08:15:40.185Z,33.80
2018-12-29T08:19:02.069Z,34.53
2018-12-29T08:22:24.473Z,35.40
2018-12-29T08:25:46.713Z,36.03
2018-12-29T08:29:09.013Z,35.40
2018-12-29T08:32:31.817Z,36.97
2018-12-29T08:35:54.265Z,34.47
2018-12-29T08:39:16.571Z,34.13
2018-12-29T08:42:38.905Z,35.17
2018-12-29T08:46:01.486Z,36.03
2018-12-29T08:49:23.756Z,35.87
2018-12-29T08:52:46.021Z,34.90
2018-12-29T08:56:08.139Z,35.83
2018-12-29T08:59:30.302Z,34.00
2018-12-29T09:02:52.670Z,35.93
2018-12-29T09:06:14.594Z,36.30
2018-12-29T09:09:37.006Z,35.47
2018-12-29T09:12:59.141Z,36.40
2018-12-29T09:16:21.266Z,34.40
2018-12-29T09:19:43.622Z,35.77
2018-12-29T09:23:05.545Z,35.57
2018-12-29T09:26:27.770Z,34.87
2018-12-29T09:29:49.682Z,36.40
2018-12-29T09:33:11.850Z,32.67
2018-12-29T09:36:34.085Z,32.27
2018-12-29T09:39:56.436Z,33.07
2018-12-29T09:43:18.660Z,32.20
2018-12-29T09:46:40.719Z,30.40
2018-12-29T09:50:03.206Z,29.90
2018-12-29T09:53:25.412Z,31.13
2018-12-29T09:56:47.508Z,29.97
2018-12-29T10:00:09.882Z,29.07
2018-12-29T10:03:32.407Z,28.40
2018-12-29T10:06:54.618Z,27.43
2018-12-29T10:10:16.972Z,30.13
2018-12-29T10:13:39.135Z,30.37
2018-12-29T10:17:01.141Z,30.40
2018-12-29T10:20:23.380Z,32.03
2018-12-29T10:23:45.879Z,31.80
2018-12-29T10:27:08.142Z,30.10
2018-12-29T10:30:30.315Z,32.40
2018-12-29T10:33:52.242Z,30.40
2018-12-29T10:37:14.283Z,30.30
2018-12-29T10:40:36.654Z,28.20
2018-12-29T10:43:59.242Z,29.17
2018-12-29T10:47:21.539Z,28.47
2018-12-29T10:50:43.521Z,30.03
2018-12-29T10:54:05.649Z,27.83
2018-12-29T10:57:27.785Z,30.87
2018-12-29T11:00:49.925Z,30.10
2018-12-29T11:04:12.132Z,29.70
2018-12-29T11:07:34.623Z,29.83
2018-12-29T11:10:56.777Z,28.70
2018-12-29T11:14:18.849Z,26.30
2018-12-29T11:17:42.611Z,25.37
2018-12-29T11:21:05.921Z,26.17
2018-12-29T11:24:28.117Z,26.57
2018-12-29T11:27:50.227Z,25.47
2018-12-29T11:31:12.182Z,25.80
2018-12-29T11:34:34.663Z,27.23
2018-12-29T11:37:56.902Z,28.80
2018-12-29T11:41:19.169Z,28.43
2018-12-29T11:44:41.224Z,29.63
2018-12-29T11:48:03.252Z,30.17
2018-12-29T11:51:25.872Z,29.13
2018-12-29T11:54:48.245Z,30.13
2018-12-29T11:58:10.545Z,27.87
2018-12-29T12:01:32.673Z,28.83
2018-12-29T12:04:55.146Z,30.43
2018-12-29T12:08:17.353Z,39.47
2018-12-29T12:11:39.936Z,28.93
2018-12-29T12:15:02.115Z,27.93
2018-12-29T12:18:24.273Z,31.90
2018-12-29T12:21:46.231Z,29.57
2018-12-29T12:25:08.464Z,30.63
2018-12-29T12:28:30.716Z,29.37
2018-12-29T12:31:52.941Z,29.80
2018-12-29T12:35:15.208Z,30.07
2018-12-29T12:38:37.564Z,29.20
2018-12-29T12:41:59.785Z,28.07
2018-12-29T12:45:22.036Z,28.70
2018-12-29T12:48:44.510Z,28.90
2018-12-29T12:52:06.982Z,29.10
2018-12-29T12:55:29.355Z,29.70
2018-12-29T12:58:51.928Z,28.27
2018-12-29T13:02:14.818Z,28.57
2018-12-29T13:05:37.257Z,27.77
2018-12-29T13:08:59.912Z,28.30
2018-12-29T13:12:22.504Z,26.57
2018-12-29T13:15:45.196Z,27.20
2018-12-29T13:19:07.385Z,26.93
2018-12-29T13:22:30.248Z,27.00
2018-12-29T13:25:52.445Z,26.93
2018-12-29T13:29:15.131Z,26.03
2018-12-29T13:32:37.313Z,25.80
2018-12-29T13:35:59.764Z,25.30
2018-12-29T13:39:22.277Z,27.30
2018-12-29T13:42:45.043Z,25.47
2018-12-29T13:46:07.259Z,26.03
2018-12-29T13:49:30.089Z,25.77
2018-12-29T13:52:52.208Z,26.70
2018-12-29T13:56:15.119Z,24.37
2018-12-29T13:59:37.830Z,24.93
2018-12-29T14:03:00.316Z,25.83
2018-12-29T14:06:22.704Z,23.07
2018-12-29T14:09:45.111Z,22.70
2018-12-29T14:13:07.445Z,23.83
2018-12-29T14:16:29.994Z,23.63
2018-12-29T14:19:52.569Z,23.57
2018-12-29T14:23:14.796Z,24.33
2018-12-29T14:26:37.405Z,23.67
2018-12-29T14:29:59.986Z,27.20
2018-12-29T14:33:22.242Z,23.97
2018-12-29T14:36:44.365Z,24.83
2018-12-29T14:40:06.973Z,24.23
2018-12-29T14:43:29.106Z,26.30
2018-12-29T14:46:51.536Z,25.03
2018-12-29T14:50:13.389Z,24.07
2018-12-29T14:53:35.597Z,24.33
2018-12-29T14:56:57.773Z,25.43
2018-12-29T15:00:20.579Z,24.57
2018-12-29T15:03:42.962Z,25.67
2018-12-29T15:07:05.160Z,26.87
2018-12-29T15:10:27.436Z,26.30
2018-12-29T15:13:49.978Z,26.33
2018-12-29T15:17:12.609Z,33.73
2018-12-29T15:20:34.555Z,26.10
2018-12-29T15:23:57.345Z,26.50
2018-12-29T15:27:19.861Z,28.37
2018-12-29T15:30:42.292Z,28.00
2018-12-29T15:34:04.349Z,25.37
2018-12-29T15:37:27.069Z,26.40
2018-12-29T15:40:49.357Z,26.53
2018-12-29T15:44:11.434Z,26.07
2018-12-29T15:47:33.672Z,26.50
2018-12-29T15:50:55.944Z,28.90
2018-12-29T15:54:18.175Z,28.33
2018-12-29T15:57:40.575Z,28.73
2018-12-29T16:01:03.019Z,28.87
2018-12-29T16:04:25.231Z,26.57
2018-12-29T16:07:47.611Z,24.00
2018-12-29T16:11:09.889Z,26.13
2018-12-29T16:14:35.545Z,25.57
2018-12-29T16:17:56.153Z,30.10
2018-12-29T16:21:18.297Z,27.23
2018-12-29T16:24:40.600Z,41.13
2018-12-29T16:28:02.818Z,156.53
2018-12-29T16:31:25.318Z,25.57
2018-12-29T16:34:47.785Z,25.83
2018-12-29T16:38:10.054Z,23.67
2018-12-29T16:41:32.553Z,25.23
2018-12-29T16:44:55.519Z,23.97
2018-12-29T16:48:18.010Z,21.17
2018-12-29T16:51:39.974Z,20.10
2018-12-29T16:55:02.501Z,19.37
2018-12-29T16:58:24.885Z,18.00
2018-12-29T17:01:47.367Z,19.80
2018-12-29T17:05:09.457Z,16.43
2018-12-29T17:08:31.686Z,15.53
2018-12-29T17:11:54.133Z,16.43
2018-12-29T17:15:16.503Z,14.80
2018-12-29T17:18:38.923Z,16.73
2018-12-29T17:22:01.065Z,14.27
2018-12-29T17:25:23.517Z,16.03
2018-12-29T17:28:46.003Z,13.17
2018-12-29T17:32:08.589Z,21.10
2018-12-29T17:35:31.069Z,42.57
2018-12-29T17:38:53.279Z,14.77
2018-12-29T17:42:15.596Z,13.10
2018-12-29T17:45:37.915Z,13.93
2018-12-29T17:49:00.286Z,13.00
2018-12-29T17:52:22.226Z,12.00
2018-12-29T17:55:44.569Z,12.07
2018-12-29T17:59:07.217Z,11.80
2018-12-29T18:02:29.418Z,10.90
2018-12-29T18:05:52.047Z,10.93
2018-12-29T18:09:14.652Z,11.23
2018-12-29T18:12:36.996Z,10.63
2018-12-29T18:15:58.925Z,10.70
2018-12-29T18:19:21.152Z,10.10
2018-12-29T18:22:43.416Z,10.63
2018-12-29T18:26:05.733Z,10.97
2018-12-29T18:29:28.270Z,11.27
2018-12-29T18:32:50.573Z,14.27
2018-12-29T18:36:12.863Z,54.43
2018-12-29T18:39:35.372Z,16.63
2018-12-29T18:42:57.696Z,12.73
2018-12-29T18:46:19.890Z,13.67
2018-12-29T18:49:42.244Z,13.00
2018-12-29T18:53:04.761Z,12.60
2018-12-29T18:56:27.308Z,13.83
2018-12-29T18:59:49.619Z,14.93
2018-12-29T19:03:11.642Z,14.17
2018-12-29T19:06:33.901Z,14.37
2018-12-29T19:09:56.460Z,15.40
2018-12-29T19:13:18.832Z,15.37
2018-12-29T19:16:41.554Z,16.77
2018-12-29T19:20:03.785Z,16.33
2018-12-29T19:23:26.276Z,18.43
2018-12-29T19:26:49.035Z,19.13
2018-12-29T19:30:11.500Z,22.00
2018-12-29T19:33:33.952Z,22.90
2018-12-29T19:36:56.809Z,23.50
2018-12-29T19:40:19.101Z,22.70
2018-12-29T19:43:41.278Z,25.37
2018-12-29T19:47:03.445Z,24.77
2018-12-29T19:50:26.293Z,25.67
2018-12-29T19:53:48.516Z,27.13
2018-12-29T19:57:10.769Z,28.23
2018-12-29T20:00:34.030Z,29.77
2018-12-29T20:03:56.365Z,27.87
2018-12-29T20:07:19.152Z,29.43
2018-12-29T20:10:41.402Z,28.93
2018-12-29T20:14:03.580Z,28.30
2018-12-29T20:17:25.616Z,30.40
2018-12-29T20:20:47.928Z,29.13
2018-12-29T20:24:10.504Z,31.43
2018-12-29T20:27:33.485Z,33.37
2018-12-29T20:30:55.885Z,33.33
2018-12-29T20:34:18.400Z,33.67
2018-12-29T20:37:40.880Z,32.37
2018-12-29T20:41:03.706Z,33.80
2018-12-29T20:44:26.106Z,31.73
2018-12-29T20:47:48.308Z,33.40
2018-12-29T20:51:10.566Z,33.00
2018-12-29T20:54:32.833Z,33.20
2018-12-29T20:57:54.776Z,32.73
2018-12-29T21:01:16.993Z,32.07
2018-12-29T21:04:39.144Z,30.60
2018-12-29T21:08:00.961Z,30.97
2018-12-29T21:11:22.892Z,30.23
2018-12-29T21:14:45.068Z,37.20
2018-12-29T21:18:07.040Z,29.33
2018-12-29T21:21:29.273Z,29.50
2018-12-29T21:24:51.263Z,27.93
2018-12-29T21:28:13.552Z,28.00
2018-12-29T21:31:36.262Z,27.63
2018-12-29T21:34:58.537Z,28.33
2018-12-29T21:38:20.992Z,27.53
2018-12-29T21:41:43.172Z,24.53
2018-12-29T21:45:05.806Z,25.83
2018-12-29T21:48:28.008Z,23.40
2018-12-29T21:51:50.120Z,24.23
2018-12-29T21:55:12.631Z,23.00
2018-12-29T21:58:35.167Z,22.47
2018-12-29T22:01:57.341Z,21.47
2018-12-29T22:05:19.423Z,23.37
2018-12-29T22:08:41.577Z,22.27
2018-12-29T22:12:03.713Z,21.37
2018-12-29T22:15:25.909Z,22.63
2018-12-29T22:18:48.338Z,23.30
2018-12-29T22:22:11.161Z,23.40
2018-12-29T22:25:33.774Z,22.30
2018-12-29T22:28:55.956Z,24.50
2018-12-29T22:32:18.220Z,23.83
2018-12-29T22:35:40.741Z,21.57
2018-12-29T22:39:04.367Z,21.73
2018-12-29T22:42:26.958Z,21.50
2018-12-29T22:45:49.559Z,21.10
2018-12-29T22:49:11.929Z,19.67
2018-12-29T22:52:33.875Z,18.93
2018-12-29T22:55:56.000Z,20.33
2018-12-29T22:59:18.409Z,18.50
2018-12-29T23:02:40.899Z,19.23
2018-12-29T23:06:03.097Z,21.73
2018-12-29T23:09:25.213Z,19.33
2018-12-29T23:12:47.646Z,19.10
2018-12-29T23:16:10.041Z,19.73
2018-12-29T23:19:32.145Z,19.53
2018-12-29T23:22:54.058Z,18.80
2018-12-29T23:26:16.497Z,20.63
2018-12-29T23:29:39.069Z,18.67
2018-12-29T23:33:01.648Z,19.73
2018-12-29T23:36:23.981Z,19.07
2018-12-29T23:39:46.189Z,18.60
2018-12-29T23:43:08.592Z,19.97
2018-12-29T23:46:31.221Z,18.60
2018-12-29T23:49:53.666Z,19.57
2018-12-29T23:53:16.058Z,20.07
2018-12-29T23:56:38.805Z,19.90
